Time;durP1;ratioP1;P1;durP2;ratioP2;P2;SDS_P1;SDS_P2;PMS_P1;PMS_P2;Temp;Humidity;BMP_temperature;BMP_pressure;BME280_temperature;BME280_humidity;BME280_pressure;Samples;Min_cycle;Max_cycle;Signal;HPM_P1;HPM_P2
2022/10/24 00:00:55;;;;;;;12.10;4.85;;;;;;;;;;5326027;27;20009;-72
2022/10/24 00:03:20;;;;;;;14.43;5.07;;;;;;;;;;5324498;27;20059;-72
2022/10/24 00:05:47;;;;;;;11.98;4.82;;;;;;;;;;5328360;27;20001;-72
2022/10/24 00:08:12;;;;;;;12.95;5.25;;;;;;;;;;5328215;27;20027;-72
2022/10/24 00:10:45;;;;;;;10.13;4.97;;;;;;;;;;5325865;27;20430;-72
2022/10/24 00:13:12;;;;;;;15.73;5.55;;;;;;;;;;5306103;27;19988;-72
2022/10/24 00:15:37;;;;;;;12.00;5.40;;;;;;;;;;5327804;27;20426;-72
2022/10/24 00:18:03;;;;;;;13.45;5.15;;;;;;;;;;5307026;27;20007;-72
2022/10/24 00:20:28;;;;;;;15.02;5.12;;;;;;;;;;5325772;27;20364;-72
2022/10/24 00:22:53;;;;;;;13.85;5.37;;;;;;;;;;5326631;27;20011;-72
2022/10/24 00:25:19;;;;;;;13.32;5.37;;;;;;;;;;5325728;27;20067;-72
2022/10/24 00:27:44;;;;;;;10.43;4.87;;;;;;;;;;5326840;27;20011;-72
2022/10/24 00:30:09;;;;;;;8.57;4.80;;;;;;;;;;5326338;27;20012;-72
2022/10/24 00:32:34;;;;;;;11.73;4.35;;;;;;;;;;5328224;27;20000;-72
2022/10/24 00:35:00;;;;;;;9.60;4.10;;;;;;;;;;5326130;27;20016;-72
2022/10/24 01:43:15;;;;;;;6.90;2.30;;;;;;;;;;5348525;26;20007;-82
2022/10/24 01:46:16;;;;;;;;;;;;;;;;;;;;;
2022/10/24 01:52:12;;;;;;;11.32;2.90;;;;;;;;;;5348884;26;20005;-81
2022/10/24 01:54:45;;;;;;;10.63;2.30;;;;;;;;;;5215349;27;20026;-81
2022/10/24 01:57:49;;;;;;;;;;;;;;;;;;;;;
2022/10/24 02:00:18;;;;;;;14.13;2.72;;;;;;;;;;5327812;27;20074;-81
2022/10/24 02:12:21;;;;;;;4.22;2.30;;;;;;;;;;5327771;27;20054;-81
2022/10/24 02:21:31;;;;;;;;;;;;;;;;;;;;;
2022/10/24 02:24:32;;;;;;;;;;;;;;;;;;;;;
2022/10/24 02:27:10;;;;;;;5.37;2.12;;;;;;;;;;5327753;27;20019;-81
2022/10/24 02:30:07;;;;;;;;;;;;;;;;;;;;;
2022/10/24 02:39:30;;;;;;;11.88;2.20;;;;;;;;;;5111038;28;20315;-81
2022/10/24 02:42:09;;;;;;;5.80;2.05;;;;;;;;;;5170728;27;20406;-80
2022/10/24 02:50:27;;;;;;;8.05;2.35;;;;;;;;;;5216483;27;20041;-80
2022/10/24 02:53:01;;;;;;;5.55;2.03;;;;;;;;;;5232857;27;20406;-80
2022/10/24 02:55:38;;;;;;;6.50;2.17;;;;;;;;;;5249444;27;20351;-81
2022/10/24 02:58:07;;;;;;;6.25;2.17;;;;;;;;;;5259535;27;19989;-80
2022/10/24 03:00:40;;;;;;;9.55;2.17;;;;;;;;;;5266160;26;20473;-80
2022/10/24 03:03:11;;;;;;;7.55;1.80;;;;;;;;;;5329647;26;20016;-81
2022/10/24 03:08:48;;;;;;;7.62;2.08;;;;;;;;;;5232589;27;20475;-81
2022/10/24 03:15:28;;;;;;;10.02;1.80;;;;;;;;;;5132543;27;20018;-81
2022/10/24 03:21:30;;;;;;;8.30;1.83;;;;;;;;;;5213491;27;20017;-80
2022/10/24 03:24:10;;;;;;;11.43;2.03;;;;;;;;;;5152528;27;20055;-81
2022/10/24 03:27:11;;;;;;;10.82;1.75;;;;;;;;;;5152833;27;20090;-81
2022/10/24 03:30:00;;;;;;;9.75;2.25;;;;;;;;;;5153270;27;20012;-81
2022/10/24 03:32:34;;;;;;;10.00;1.80;;;;;;;;;;5152889;27;20044;-81
2022/10/24 03:35:34;;;;;;;8.63;2.10;;;;;;;;;;5160134;27;20018;-79
2022/10/24 03:40:54;;;;;;;7.43;2.10;;;;;;;;;;5237659;27;20067;-81
2022/10/24 03:43:36;;;;;;;7.47;2.20;;;;;;;;;;5236984;27;20067;-81
2022/10/24 03:58:27;;;;;;;;;;;;;;;;;;;;;
2022/10/24 04:06:43;;;;;;;7.90;1.80;;;;;;;;;;5237376;27;20001;-81
2022/10/24 04:10:16;;;;;;;;;;;;;;;;;;;;;
2022/10/24 04:13:51;;;;;;;11.88;2.05;;;;;;;;;;5190491;27;20006;-79
2022/10/24 04:21:31;;;;;;;9.07;2.00;;;;;;;;;;5215272;27;19936;-79
2022/10/24 04:24:02;;;;;;;6.75;1.60;;;;;;;;;;5267181;27;20009;-78
2022/10/24 04:26:50;;;;;;;10.57;2.50;;;;;;;;;;5316656;27;20016;-78
2022/10/24 04:32:11;;;;;;;12.63;2.22;;;;;;;;;;5327724;27;20026;-77
2022/10/24 04:35:02;;;;;;;11.12;2.05;;;;;;;;;;5326723;27;19988;-79
2022/10/24 04:41:16;;;;;;;11.27;3.35;;;;;;;;;;5216513;27;20009;-79
2022/10/24 04:43:55;;;;;;;12.27;2.30;;;;;;;;;;5215861;27;20426;-78
2022/10/24 04:47:02;;;;;;;9.32;2.28;;;;;;;;;;5216040;27;20057;-78
2022/10/24 04:49:56;;;;;;;14.93;2.12;;;;;;;;;;5212852;27;20010;-79
2022/10/24 04:55:18;;;;;;;9.48;1.85;;;;;;;;;;5216051;27;20021;-78
2022/10/24 05:19:03;;;;;;;10.18;2.10;;;;;;;;;;5236601;27;20035;-78
2022/10/24 05:27:06;;;;;;;9.63;1.95;;;;;;;;;;5347879;26;20008;-78
2022/10/24 05:29:50;;;;;;;6.93;1.90;;;;;;;;;;5347984;26;20016;-78
2022/10/24 05:32:18;;;;;;;8.68;2.12;;;;;;;;;;5349637;26;20039;-77
2022/10/24 05:38:15;;;;;;;;;;;;;;;;;;;;;
2022/10/24 05:41:17;;;;;;;10.98;2.10;;;;;;;;;;5346449;26;20040;-78
2022/10/24 05:44:12;;;;;;;11.40;2.03;;;;;;;;;;5342362;26;20002;-78
2022/10/24 05:47:09;;;;;;;10.23;2.45;;;;;;;;;;5330176;26;20430;-77
2022/10/24 05:50:08;;;;;;;6.80;1.80;;;;;;;;;;5341819;26;19992;-78
2022/10/24 05:53:11;;;;;;;16.40;2.30;;;;;;;;;;5311072;26;20008;-78
2022/10/24 06:02:12;;;;;;;16.50;3.33;;;;;;;;;;5342487;26;20017;-77
2022/10/24 06:08:09;;;;;;;7.20;2.70;;;;;;;;;;5310579;26;20019;-78
2022/10/24 06:10:45;;;;;;;9.10;2.05;;;;;;;;;;5342075;26;20362;-76
2022/10/24 06:13:32;;;;;;;12.07;2.25;;;;;;;;;;5349552;26;19988;-78
2022/10/24 06:15:56;;;;;;;8.15;1.90;;;;;;;;;;5348657;26;20005;-78
2022/10/24 06:18:28;;;;;;;10.60;2.22;;;;;;;;;;5349477;26;20015;-78
2022/10/24 06:21:23;;;;;;;10.23;2.25;;;;;;;;;;5350289;26;20040;-78
2022/10/24 06:23:49;;;;;;;18.85;3.75;;;;;;;;;;5349116;26;20016;-77
2022/10/24 06:26:14;;;;;;;10.15;2.25;;;;;;;;;;5349924;26;20046;-77
2022/10/24 06:29:30;;;;;;;14.38;3.10;;;;;;;;;;5349614;26;20055;-77
2022/10/24 06:31:37;;;;;;;8.60;1.80;;;;;;;;;;5339474;26;20001;-77
2022/10/24 06:34:15;;;;;;;9.90;2.33;;;;;;;;;;5329351;26;20011;-77
2022/10/24 06:37:01;;;;;;;17.33;3.53;;;;;;;;;;5349990;26;20001;-75
2022/10/24 06:40:04;;;;;;;;;;;;;;;;;;;;;
2022/10/24 06:52:52;;;;;;;9.68;2.33;;;;;;;;;;5251019;27;20033;-79
2022/10/24 06:55:17;;;;;;;14.85;2.35;;;;;;;;;;5216326;27;20002;-77
2022/10/24 06:58:29;;;;;;;;;;;;;;;;;;;;;
2022/10/24 07:04:26;;;;;;;4.53;1.87;;;;;;;;;;5195589;27;20003;-77
2022/10/24 07:07:15;;;;;;;11.25;2.72;;;;;;;;;;5289146;26;20010;-78
2022/10/24 07:09:40;;;;;;;11.07;2.25;;;;;;;;;;5337894;26;20007;-76
2022/10/24 07:12:37;;;;;;;12.48;2.12;;;;;;;;;;5349012;26;20041;-78
2022/10/24 07:15:23;;;;;;;7.72;2.03;;;;;;;;;;5341370;26;19999;-75
2022/10/24 07:18:00;;;;;;;14.90;2.53;;;;;;;;;;5349451;26;20001;-78
2022/10/24 07:20:31;;;;;;;8.65;1.87;;;;;;;;;;5349410;26;20016;-78
2022/10/24 07:23:02;;;;;;;10.80;3.50;;;;;;;;;;5349786;26;20011;-77
2022/10/24 07:25:30;;;;;;;10.30;2.42;;;;;;;;;;5349401;26;19984;-78
2022/10/24 07:31:09;;;;;;;14.80;2.67;;;;;;;;;;5349881;26;20025;-77
2022/10/24 07:33:36;;;;;;;11.25;2.80;;;;;;;;;;5349485;26;20363;-77
2022/10/24 07:36:38;;;;;;;11.07;2.85;;;;;;;;;;5349275;26;20016;-77
2022/10/24 07:39:12;;;;;;;7.55;2.72;;;;;;;;;;5348296;26;20389;-79
2022/10/24 07:41:40;;;;;;;12.77;3.80;;;;;;;;;;5349100;26;20002;-79
2022/10/24 07:44:25;;;;;;;11.50;2.78;;;;;;;;;;5348829;26;20081;-79
2022/10/24 07:47:33;;;;;;;;;;;;;;;;;;;;;
2022/10/24 07:50:22;;;;;;;12.77;2.67;;;;;;;;;;5348597;26;20009;-79
2022/10/24 07:56:11;;;;;;;17.92;3.12;;;;;;;;;;5348311;26;20019;-78
2022/10/24 07:58:46;;;;;;;11.65;2.83;;;;;;;;;;5348344;26;20035;-78
2022/10/24 08:01:25;;;;;;;15.15;3.15;;;;;;;;;;5349287;26;20003;-76
2022/10/24 08:10:01;;;;;;;11.02;3.00;;;;;;;;;;5232217;27;20012;-76
2022/10/24 08:12:57;;;;;;;11.48;3.20;;;;;;;;;;5338316;26;20024;-77
2022/10/24 08:15:30;;;;;;;16.98;3.03;;;;;;;;;;5349368;26;20406;-78
2022/10/24 08:18:01;;;;;;;14.77;2.72;;;;;;;;;;5348893;26;20035;-76
2022/10/24 08:20:27;;;;;;;8.68;2.12;;;;;;;;;;5329382;26;20000;-78
2022/10/24 08:22:55;;;;;;;14.57;3.90;;;;;;;;;;5348685;26;20000;-79
2022/10/24 08:25:22;;;;;;;13.93;2.65;;;;;;;;;;5348641;26;20004;-78
2022/10/24 08:27:51;;;;;;;15.25;2.78;;;;;;;;;;5348233;26;19999;-77
2022/10/24 08:30:25;;;;;;;13.50;2.58;;;;;;;;;;5348202;26;20011;-79
2022/10/24 08:32:53;;;;;;;14.57;2.85;;;;;;;;;;5349898;26;20048;-80
2022/10/24 08:35:26;;;;;;;11.73;2.67;;;;;;;;;;5348177;26;20015;-79
2022/10/24 08:38:00;;;;;;;10.45;2.58;;;;;;;;;;5322885;26;20012;-78
2022/10/24 08:40:58;;;;;;;10.90;3.15;;;;;;;;;;5329364;26;20035;-79
2022/10/24 08:46:49;;;;;;;11.02;2.62;;;;;;;;;;5348839;26;20033;-78
2022/10/24 08:49:21;;;;;;;12.75;2.97;;;;;;;;;;5328916;26;20298;-78
2022/10/24 08:51:52;;;;;;;11.93;2.75;;;;;;;;;;5349428;26;20004;-78
2022/10/24 08:54:21;;;;;;;13.68;3.78;;;;;;;;;;5348439;26;20010;-76
2022/10/24 08:56:56;;;;;;;14.68;2.45;;;;;;;;;;5349139;26;20417;-79
2022/10/24 08:59:46;;;;;;;;;;;;;;;;;;;;;
2022/10/24 09:02:33;;;;;;;;;;;;;;;;;;;;;
2022/10/24 09:08:29;;;;;;;10.77;2.33;;;;;;;;;;5326531;27;20000;-78
2022/10/24 09:11:13;;;;;;;;;;;;;;;;;;;;;
2022/10/24 09:16:34;;;;;;;9.52;2.15;;;;;;;;;;5326371;27;20037;-80
2022/10/24 09:19:25;;;;;;;13.38;3.10;;;;;;;;;;5326327;27;19996;-77
2022/10/24 09:22:13;;;;;;;12.05;2.70;;;;;;;;;;5326620;27;20007;-80
2022/10/24 09:24:44;;;;;;;8.35;2.62;;;;;;;;;;5312508;27;20043;-78
2022/10/24 09:27:36;;;;;;;11.57;2.72;;;;;;;;;;5326778;27;20017;-78
2022/10/24 09:30:13;;;;;;;9.18;2.22;;;;;;;;;;5311093;27;20005;-78
2022/10/24 09:32:40;;;;;;;9.60;3.03;;;;;;;;;;5306968;27;20306;-78
2022/10/24 09:35:08;;;;;;;12.43;2.47;;;;;;;;;;5326484;27;20132;-79
2022/10/24 09:37:38;;;;;;;17.05;5.68;;;;;;;;;;5305752;26;20001;-78
2022/10/24 09:40:08;;;;;;;12.37;3.00;;;;;;;;;;5326157;27;20019;-77
2022/10/24 09:42:36;;;;;;;8.05;2.33;;;;;;;;;;5326007;27;20005;-77
2022/10/24 09:45:16;;;;;;;14.27;3.40;;;;;;;;;;5326390;27;20011;-77
2022/10/24 09:51:09;;;;;;;12.70;3.00;;;;;;;;;;5326395;27;20015;-76
2022/10/24 09:53:57;;;;;;;14.70;2.92;;;;;;;;;;5317400;27;20008;-77
2022/10/24 09:59:34;;;;;;;12.05;2.72;;;;;;;;;;5305533;27;20056;-78
2022/10/24 10:02:27;;;;;;;10.63;2.50;;;;;;;;;;5326923;27;20015;-75
2022/10/24 10:05:05;;;;;;;9.63;2.30;;;;;;;;;;5301581;27;20009;-77
2022/10/24 10:07:32;;;;;;;10.57;2.50;;;;;;;;;;5317380;27;20000;-76
2022/10/24 10:10:22;;;;;;;11.45;2.58;;;;;;;;;;5326405;27;20005;-77
2022/10/24 10:13:24;;;;;;;9.82;2.10;;;;;;;;;;5326376;27;20389;-77
2022/10/24 10:16:18;;;;;;;7.50;2.00;;;;;;;;;;5290433;27;20014;-78
2022/10/24 10:18:47;;;;;;;7.40;2.00;;;;;;;;;;5307421;27;20326;-76
2022/10/24 10:21:24;;;;;;;10.05;2.22;;;;;;;;;;5327609;27;20004;-77
2022/10/24 10:23:50;;;;;;;10.32;2.10;;;;;;;;;;5327952;27;20366;-78
2022/10/24 10:26:33;;;;;;;11.20;2.62;;;;;;;;;;5327285;27;20043;-76
2022/10/24 10:29:17;;;;;;;10.38;2.25;;;;;;;;;;5327548;27;19993;-79
2022/10/24 10:31:53;;;;;;;19.40;2.85;;;;;;;;;;5327401;27;20000;-77
2022/10/24 10:34:30;;;;;;;7.65;2.12;;;;;;;;;;5327305;27;20384;-77
2022/10/24 10:37:24;;;;;;;;;;;;;;;;;;;;;
2022/10/24 10:40:07;;;;;;;12.00;2.30;;;;;;;;;;5326269;27;20362;-77
2022/10/24 10:43:11;;;;;;;11.77;2.33;;;;;;;;;;5307632;27;20310;-77
2022/10/24 10:46:07;;;;;;;12.55;2.58;;;;;;;;;;5237333;27;20089;-77
2022/10/24 10:49:02;;;;;;;10.88;2.33;;;;;;;;;;5237101;27;20036;-77
2022/10/24 10:57:45;;;;;;;9.57;2.42;;;;;;;;;;5237758;27;20028;-78
2022/10/24 11:04:02;;;;;;;10.85;2.30;;;;;;;;;;5238497;27;20029;-77
2022/10/24 11:06:45;;;;;;;7.32;2.33;;;;;;;;;;5265538;27;20071;-77
2022/10/24 11:09:35;;;;;;;5.85;1.90;;;;;;;;;;5327693;27;20299;-77
2022/10/24 11:12:10;;;;;;;8.77;1.87;;;;;;;;;;5323838;27;20019;-76
2022/10/24 11:14:56;;;;;;;7.35;2.50;;;;;;;;;;5307822;27;19996;-76
2022/10/24 11:17:29;;;;;;;9.57;3.12;;;;;;;;;;5328532;27;20008;-78
2022/10/24 11:20:14;;;;;;;7.43;2.05;;;;;;;;;;5307570;27;20348;-78
2022/10/24 11:22:46;;;;;;;11.80;4.12;;;;;;;;;;5307708;27;19997;-77
2022/10/24 11:25:27;;;;;;;8.13;3.20;;;;;;;;;;5307485;27;19997;-77
2022/10/24 11:27:58;;;;;;;9.90;2.67;;;;;;;;;;5326379;27;20332;-78
2022/10/24 11:30:39;;;;;;;10.18;2.85;;;;;;;;;;5326842;27;19996;-78
2022/10/24 11:33:16;;;;;;;7.70;2.25;;;;;;;;;;5325263;27;20000;-78
2022/10/24 11:35:58;;;;;;;9.77;2.60;;;;;;;;;;5327293;27;19992;-76
2022/10/24 11:38:33;;;;;;;8.38;1.92;;;;;;;;;;5327047;26;20005;-78
2022/10/24 11:41:34;;;;;;;10.75;2.47;;;;;;;;;;5327132;27;20000;-79
2022/10/24 11:44:10;;;;;;;10.75;3.40;;;;;;;;;;5328022;27;20321;-79
2022/10/24 11:46:35;;;;;;;;;;;;;;;;;;5307059;27;20011;-77
2022/10/24 11:49:23;;;;;;;6.40;2.20;;;;;;;;;;5326433;27;19927;-78
2022/10/24 11:51:58;;;;;;;7.45;2.37;;;;;;;;;;5306429;27;20001;-78
2022/10/24 11:54:42;;;;;;;9.82;3.17;;;;;;;;;;5326182;27;20045;-76
2022/10/24 11:57:14;;;;;;;7.60;2.83;;;;;;;;;;5326242;27;20020;-78
2022/10/24 11:59:41;;;;;;;9.13;2.90;;;;;;;;;;5326575;27;20020;-79
2022/10/24 12:02:12;;;;;;;11.07;3.83;;;;;;;;;;5326729;27;20004;-79
2022/10/24 12:05:10;;;;;;;11.75;3.33;;;;;;;;;;5306227;27;20009;-77
2022/10/24 12:07:38;;;;;;;7.80;2.78;;;;;;;;;;5326835;27;20044;-78
2022/10/24 12:10:25;;;;;;;12.55;3.50;;;;;;;;;;5326390;27;20001;-78
2022/10/24 12:13:15;;;;;;;12.73;2.60;;;;;;;;;;5325891;27;20036;-78
2022/10/24 12:15:46;;;;;;;17.08;3.17;;;;;;;;;;5326685;27;20012;-80
2022/10/24 12:18:14;;;;;;;9.07;3.08;;;;;;;;;;5326582;27;20012;-80
2022/10/24 12:21:03;;;;;;;10.60;2.92;;;;;;;;;;5325995;27;20008;-79
2022/10/24 12:23:30;;;;;;;8.25;2.20;;;;;;;;;;5326070;27;19993;-79
2022/10/24 12:26:07;;;;;;;8.65;2.05;;;;;;;;;;5299023;27;20369;-79
2022/10/24 12:28:42;;;;;;;8.68;3.12;;;;;;;;;;5326370;27;20005;-78
2022/10/24 12:31:13;;;;;;;12.20;2.90;;;;;;;;;;5325699;27;19997;-79
2022/10/24 12:33:45;;;;;;;7.55;2.47;;;;;;;;;;5306202;27;20002;-79
2022/10/24 12:36:16;;;;;;;8.93;2.75;;;;;;;;;;5327024;27;20001;-80
2022/10/24 12:38:42;;;;;;;12.48;2.90;;;;;;;;;;5326306;26;20009;-79
2022/10/24 12:41:26;;;;;;;15.43;3.33;;;;;;;;;;5325650;27;20000;-78
2022/10/24 12:44:12;;;;;;;12.85;3.67;;;;;;;;;;5306120;27;20055;-78
2022/10/24 12:46:37;;;;;;;12.00;3.28;;;;;;;;;;5315438;27;20374;-79
2022/10/24 12:49:29;;;;;;;14.13;3.80;;;;;;;;;;5307251;27;20029;-79
2022/10/24 12:51:57;;;;;;;10.85;3.30;;;;;;;;;;5327633;27;19993;-79
2022/10/24 12:54:44;;;;;;;10.40;3.55;;;;;;;;;;5306049;27;20001;-79
2022/10/24 12:57:18;;;;;;;;;;;;;;;;;;5325803;27;20001;-80
2022/10/24 12:59:54;;;;;;;16.62;4.40;;;;;;;;;;5325383;27;19936;-77
2022/10/24 13:05:32;;;;;;;17.37;3.40;;;;;;;;;;5322763;27;20372;-77
2022/10/24 13:08:26;;;;;;;;;;;;;;;;;;;;;
2022/10/24 13:10:51;;;;;;;13.70;3.42;;;;;;;;;;5326062;27;20004;-78
2022/10/24 13:13:27;;;;;;;9.85;2.90;;;;;;;;;;5306194;27;20001;-80
2022/10/24 13:16:27;;;;;;;14.45;4.47;;;;;;;;;;5326587;27;20037;-78
2022/10/24 13:19:20;;;;;;;15.68;3.45;;;;;;;;;;5320095;27;20012;-78
2022/10/24 13:22:22;;;;;;;13.70;3.17;;;;;;;;;;5325394;27;20032;-77
2022/10/24 13:24:50;;;;;;;13.52;3.35;;;;;;;;;;5236451;27;20010;-80
2022/10/24 13:27:38;;;;;;;9.38;3.00;;;;;;;;;;5308828;27;20061;-80
2022/10/24 13:30:36;;;;;;;11.77;3.30;;;;;;;;;;5305492;27;20353;-79
2022/10/24 13:33:57;;;;;;;;;;;;;;;;;;;;;
2022/10/24 13:38:53;;;;;;;8.73;2.87;;;;;;;;;;5325816;26;20115;-79
2022/10/24 13:41:28;;;;;;;13.23;2.80;;;;;;;;;;5306474;27;20008;-80
2022/10/24 13:43:55;;;;;;;12.10;3.60;;;;;;;;;;5326530;27;20012;-79
2022/10/24 13:49:55;;;;;;;12.07;2.75;;;;;;;;;;5292215;27;20005;-80
2022/10/24 13:52:23;;;;;;;10.60;2.85;;;;;;;;;;5325521;27;20005;-79
2022/10/24 13:54:52;;;;;;;13.62;3.45;;;;;;;;;;5328226;27;20011;-81
2022/10/24 13:57:24;;;;;;;12.10;3.33;;;;;;;;;;5307443;27;20052;-78
2022/10/24 13:59:54;;;;;;;14.23;2.92;;;;;;;;;;5327429;27;20032;-78
2022/10/24 14:02:20;;;;;;;12.18;2.42;;;;;;;;;;5307737;27;20323;-80
2022/10/24 14:04:53;;;;;;;13.32;2.80;;;;;;;;;;5327410;27;20039;-80
2022/10/24 14:08:26;;;;;;;14.90;3.67;;;;;;;;;;5307326;27;20012;-79
2022/10/24 14:10:55;;;;;;;8.65;2.47;;;;;;;;;;5289954;27;20432;-78
2022/10/24 14:13:27;;;;;;;9.00;2.50;;;;;;;;;;5327646;27;19997;-78
2022/10/24 14:15:54;;;;;;;15.40;3.05;;;;;;;;;;5327934;27;20014;-78
2022/10/24 14:18:56;;;;;;;14.52;2.95;;;;;;;;;;5326432;27;20038;-77
2022/10/24 14:21:22;;;;;;;11.10;2.60;;;;;;;;;;5326894;27;20005;-77
2022/10/24 14:24:16;;;;;;;7.82;3.30;;;;;;;;;;5327630;27;20031;-77
2022/10/24 14:27:02;;;;;;;;;;;;;;;;;;;;;
2022/10/24 14:29:56;;;;;;;11.10;2.42;;;;;;;;;;5327453;27;20040;-78
2022/10/24 14:32:29;;;;;;;14.95;2.92;;;;;;;;;;5326886;27;20004;-78
2022/10/24 14:34:55;;;;;;;10.38;2.37;;;;;;;;;;5327558;27;20045;-77
2022/10/24 14:37:26;;;;;;;12.98;2.67;;;;;;;;;;5326874;27;20041;-79
2022/10/24 14:39:52;;;;;;;10.77;2.75;;;;;;;;;;5326528;26;20004;-79
2022/10/24 14:42:18;;;;;;;8.68;2.70;;;;;;;;;;5326991;27;20001;-78
2022/10/24 14:44:45;;;;;;;8.10;1.90;;;;;;;;;;5327082;27;20032;-78
2022/10/24 14:47:19;;;;;;;11.07;2.53;;;;;;;;;;5326739;27;20033;-77
2022/10/24 14:49:44;;;;;;;14.02;2.47;;;;;;;;;;5327367;27;20001;-77
2022/10/24 14:52:21;;;;;;;12.30;2.78;;;;;;;;;;5327246;27;20001;-77
2022/10/24 14:55:01;;;;;;;12.57;3.35;;;;;;;;;;5327123;27;20038;-78
2022/10/24 14:57:30;;;;;;;12.27;3.90;;;;;;;;;;5327469;27;20012;-77
2022/10/24 15:00:55;;;;;;;;;;;;;;;;;;;;;
2022/10/24 15:02:46;;;;;;;31.05;3.67;;;;;;;;;;5309444;27;20447;-77
2022/10/24 15:05:25;;;;;;;;;;;;;;;;;;;;;
2022/10/24 15:07:57;;;;;;;15.88;3.22;;;;;;;;;;5327097;27;20334;-78
2022/10/24 15:13:32;;;;;;;10.13;2.28;;;;;;;;;;5237751;27;20050;-79
2022/10/24 15:16:02;;;;;;;13.25;2.92;;;;;;;;;;5327103;27;20027;-78
2022/10/24 15:18:46;;;;;;;11.23;2.58;;;;;;;;;;5325461;27;20004;-78
2022/10/24 15:21:15;;;;;;;13.30;3.20;;;;;;;;;;5327425;27;20095;-77
2022/10/24 15:23:52;;;;;;;11.90;2.83;;;;;;;;;;5327201;27;20004;-78
2022/10/24 15:26:20;;;;;;;11.38;3.12;;;;;;;;;;5326927;27;20387;-78
2022/10/24 15:28:50;;;;;;;12.75;2.85;;;;;;;;;;5326567;27;20001;-78
2022/10/24 15:31:18;;;;;;;14.48;3.10;;;;;;;;;;5307093;27;20007;-78
2022/10/24 15:33:44;;;;;;;19.80;2.85;;;;;;;;;;5326993;27;20008;-77
2022/10/24 15:36:15;;;;;;;13.52;3.60;;;;;;;;;;5307871;27;20011;-78
2022/10/24 15:38:48;;;;;;;15.98;3.92;;;;;;;;;;5327359;26;20009;-77
2022/10/24 15:41:14;;;;;;;13.68;3.10;;;;;;;;;;5328239;27;19996;-78
2022/10/24 15:43:40;;;;;;;15.27;3.62;;;;;;;;;;5326789;27;20011;-79
2022/10/24 15:46:26;;;;;;;19.10;3.72;;;;;;;;;;5326861;27;20028;-79
2022/10/24 15:48:52;;;;;;;23.30;3.80;;;;;;;;;;5327153;27;20038;-78
2022/10/24 15:51:22;;;;;;;17.95;4.10;;;;;;;;;;5326702;27;20008;-77
2022/10/24 15:53:49;;;;;;;19.12;4.32;;;;;;;;;;5328457;27;20004;-79
2022/10/24 15:56:14;;;;;;;25.02;3.62;;;;;;;;;;5326532;27;20034;-79
2022/10/24 15:58:50;;;;;;;19.65;4.00;;;;;;;;;;5326978;27;20024;-77
2022/10/24 16:01:19;;;;;;;25.73;4.10;;;;;;;;;;5326867;27;20012;-77
2022/10/24 16:03:47;;;;;;;16.15;4.03;;;;;;;;;;5326784;27;20009;-79
2022/10/24 16:06:20;;;;;;;31.37;4.40;;;;;;;;;;5326783;27;20042;-78
2022/10/24 16:08:46;;;;;;;19.60;3.90;;;;;;;;;;5326963;27;20034;-78
2022/10/24 16:11:14;;;;;;;24.10;4.85;;;;;;;;;;5326154;27;20001;-78
2022/10/24 16:13:39;;;;;;;21.15;5.10;;;;;;;;;;5326407;27;20061;-78
2022/10/24 16:16:05;;;;;;;20.27;4.15;;;;;;;;;;5305985;27;20000;-77
2022/10/24 16:18:30;;;;;;;18.05;4.10;;;;;;;;;;5326106;27;20005;-76
2022/10/24 16:20:57;;;;;;;21.60;4.72;;;;;;;;;;5326785;27;20028;-78
2022/10/24 16:23:28;;;;;;;19.33;4.97;;;;;;;;;;5326955;27;20024;-78
2022/10/24 16:25:53;;;;;;;17.45;3.80;;;;;;;;;;5327274;27;20371;-78
2022/10/24 16:28:19;;;;;;;20.98;4.28;;;;;;;;;;5327760;27;20015;-78
2022/10/24 16:30:44;;;;;;;20.88;4.90;;;;;;;;;;5327009;27;20011;-78
2022/10/24 16:33:10;;;;;;;15.75;4.25;;;;;;;;;;5326580;27;20015;-78
2022/10/24 16:35:36;;;;;;;17.52;3.87;;;;;;;;;;5326544;27;20001;-79
2022/10/24 16:38:04;;;;;;;24.00;4.90;;;;;;;;;;5326758;26;20009;-78
2022/10/24 16:40:30;;;;;;;21.67;3.62;;;;;;;;;;5323898;27;20011;-78
2022/10/24 16:42:57;;;;;;;17.20;3.97;;;;;;;;;;5326552;27;20079;-78
2022/10/24 16:45:41;;;;;;;26.50;4.50;;;;;;;;;;5306621;27;20381;-78
2022/10/24 16:48:15;;;;;;;14.32;3.80;;;;;;;;;;5326268;27;20028;-78
2022/10/24 16:50:48;;;;;;;21.65;4.65;;;;;;;;;;5327472;27;19996;-78
2022/10/24 16:53:17;;;;;;;24.98;4.55;;;;;;;;;;5327208;27;19992;-78
2022/10/24 16:55:46;;;;;;;23.20;4.60;;;;;;;;;;5306248;27;20005;-78
2022/10/24 16:58:14;;;;;;;16.60;3.70;;;;;;;;;;5306306;27;20015;-78
2022/10/24 17:00:49;;;;;;;17.85;3.83;;;;;;;;;;5326021;27;20035;-78
2022/10/24 17:03:25;;;;;;;;;;;;;;;;;;;;;
2022/10/24 17:05:51;;;;;;;18.55;4.12;;;;;;;;;;5327379;27;20099;-78
2022/10/24 17:08:17;;;;;;;24.60;5.43;;;;;;;;;;5325939;27;20365;-78
2022/10/24 17:11:01;;;;;;;;;;;;;;;;;;;;;
2022/10/24 17:13:39;;;;;;;22.55;4.35;;;;;;;;;;5325237;27;20420;-78
2022/10/24 17:16:42;;;;;;;19.52;6.22;;;;;;;;;;5306793;27;20046;-78
2022/10/24 17:19:06;;;;;;;22.65;5.82;;;;;;;;;;5325700;27;20159;-78
2022/10/24 17:21:35;;;;;;;17.83;5.95;;;;;;;;;;5324347;27;20033;-78
2022/10/24 17:24:01;;;;;;;20.17;4.75;;;;;;;;;;5325687;27;20027;-78
2022/10/24 17:26:26;;;;;;;15.40;4.53;;;;;;;;;;5326501;27;20421;-78
2022/10/24 17:29:07;;;;;;;27.45;5.05;;;;;;;;;;5325500;27;20039;-78
2022/10/24 17:31:41;;;;;;;15.90;3.70;;;;;;;;;;5326490;27;19989;-78
2022/10/24 17:34:26;;;;;;;18.67;3.20;;;;;;;;;;5326100;27;20070;-79
2022/10/24 17:37:06;;;;;;;22.70;4.75;;;;;;;;;;5306942;27;19996;-78
2022/10/24 17:39:38;;;;;;;18.55;3.83;;;;;;;;;;5325751;26;20342;-78
2022/10/24 17:42:21;;;;;;;12.90;3.22;;;;;;;;;;5326542;27;19993;-78
2022/10/24 17:45:00;;;;;;;17.30;3.70;;;;;;;;;;5305737;27;20095;-78
2022/10/24 17:47:28;;;;;;;20.37;4.30;;;;;;;;;;5326985;27;19993;-78
2022/10/24 17:50:19;;;;;;;17.85;3.87;;;;;;;;;;5324392;27;20444;-78
2022/10/24 17:53:19;;;;;;;16.08;3.47;;;;;;;;;;5293045;27;20029;-78
2022/10/24 17:56:01;;;;;;;27.58;5.07;;;;;;;;;;5319105;27;20408;-78
2022/10/24 17:58:35;;;;;;;18.92;5.12;;;;;;;;;;5326463;27;20040;-78
2022/10/24 18:01:01;;;;;;;15.90;4.22;;;;;;;;;;5325451;27;20026;-78
2022/10/24 18:03:54;;;;;;;17.80;4.65;;;;;;;;;;5325720;27;20357;-80
2022/10/24 18:07:21;;;;;;;11.73;3.83;;;;;;;;;;5306184;27;20409;-79
2022/10/24 18:12:52;;;;;;;19.30;4.70;;;;;;;;;;5326160;27;20345;-79
2022/10/24 18:16:14;;;;;;;14.70;4.28;;;;;;;;;;5325391;27;20435;-79
2022/10/24 18:18:40;;;;;;;18.00;4.65;;;;;;;;;;5215009;27;20033;-79
2022/10/24 18:21:23;;;;;;;18.27;4.10;;;;;;;;;;5215898;27;20010;-79
2022/10/24 18:23:48;;;;;;;13.23;4.35;;;;;;;;;;5292445;27;20020;-79
2022/10/24 18:26:16;;;;;;;18.62;4.93;;;;;;;;;;5326093;27;20042;-79
2022/10/24 18:28:46;;;;;;;18.75;4.57;;;;;;;;;;5326122;27;20044;-78
2022/10/24 18:31:24;;;;;;;16.48;6.70;;;;;;;;;;5325867;27;20050;-79
2022/10/24 18:33:49;;;;;;;18.30;4.57;;;;;;;;;;5326861;27;20008;-79
2022/10/24 18:36:19;;;;;;;14.77;4.05;;;;;;;;;;5326167;27;20001;-79
2022/10/24 18:38:44;;;;;;;19.70;4.55;;;;;;;;;;5326685;26;20009;-79
2022/10/24 18:41:28;;;;;;;12.27;3.90;;;;;;;;;;5327197;27;20443;-78
2022/10/24 18:43:54;;;;;;;10.15;3.42;;;;;;;;;;5328469;27;20295;-79
2022/10/24 18:46:19;;;;;;;14.60;4.03;;;;;;;;;;5328127;27;20004;-79
2022/10/24 18:48:45;;;;;;;16.42;3.97;;;;;;;;;;5326917;27;20041;-79
2022/10/24 18:51:52;;;;;;;21.20;4.12;;;;;;;;;;5327132;27;20011;-79
2022/10/24 18:54:19;;;;;;;9.98;3.17;;;;;;;;;;5326033;27;20386;-77
2022/10/24 18:56:55;;;;;;;14.80;4.03;;;;;;;;;;5307183;27;20008;-78
2022/10/24 18:59:24;;;;;;;19.40;4.30;;;;;;;;;;5327689;27;20017;-78
2022/10/24 19:01:50;;;;;;;15.07;3.90;;;;;;;;;;5306954;27;20348;-78
2022/10/24 19:04:17;;;;;;;12.18;3.58;;;;;;;;;;5327215;27;20002;-78
2022/10/24 19:06:44;;;;;;;13.25;3.42;;;;;;;;;;5326935;27;20004;-78
2022/10/24 19:09:36;;;;;;;14.50;4.20;;;;;;;;;;5327780;27;20008;-78
2022/10/24 19:12:01;;;;;;;15.20;4.43;;;;;;;;;;5301896;27;20011;-78
2022/10/24 19:14:27;;;;;;;11.95;5.15;;;;;;;;;;5327094;27;20047;-78
2022/10/24 19:16:56;;;;;;;11.60;4.50;;;;;;;;;;5326620;27;20004;-78
2022/10/24 19:19:24;;;;;;;11.02;3.90;;;;;;;;;;5327724;27;20431;-78
2022/10/24 19:21:49;;;;;;;12.48;4.53;;;;;;;;;;5329623;27;20011;-78
2022/10/24 19:24:18;;;;;;;20.12;3.92;;;;;;;;;;5327137;27;20009;-78
2022/10/24 19:26:49;;;;;;;11.93;4.65;;;;;;;;;;5307900;27;20325;-78
2022/10/24 19:29:15;;;;;;;14.35;4.97;;;;;;;;;;5328753;27;19986;-78
2022/10/24 19:31:40;;;;;;;14.68;4.50;;;;;;;;;;5326734;27;20287;-78
2022/10/24 19:34:09;;;;;;;14.00;4.97;;;;;;;;;;5327036;27;20029;-78
2022/10/24 19:36:39;;;;;;;11.85;4.50;;;;;;;;;;5307284;27;20005;-78
2022/10/24 19:39:05;;;;;;;13.32;4.50;;;;;;;;;;5327202;26;20004;-80
2022/10/24 19:41:38;;;;;;;21.83;4.72;;;;;;;;;;5326766;27;20005;-78
2022/10/24 19:44:04;;;;;;;17.10;4.87;;;;;;;;;;5327207;27;20013;-78
2022/10/24 19:46:29;;;;;;;15.43;4.65;;;;;;;;;;5327335;27;20000;-79
2022/10/24 19:48:54;;;;;;;14.52;5.10;;;;;;;;;;5326581;27;20001;-79
2022/10/24 19:51:20;;;;;;;12.25;4.37;;;;;;;;;;5325788;27;20004;-78
2022/10/24 19:53:49;;;;;;;12.02;4.93;;;;;;;;;;5326691;27;20008;-79
2022/10/24 19:56:25;;;;;;;17.87;5.40;;;;;;;;;;5326225;27;20005;-78
2022/10/24 19:58:51;;;;;;;18.12;4.60;;;;;;;;;;5327289;27;20007;-78
2022/10/24 20:01:18;;;;;;;16.35;5.45;;;;;;;;;;5326667;27;20061;-78
2022/10/24 20:03:44;;;;;;;16.15;5.55;;;;;;;;;;5327440;27;20005;-79